createdAt,value
2023-10-07T00:04:33.287Z,13.12
2023-10-07T00:09:34.758Z,13.16
2023-10-07T00:14:36.221Z,13.09
2023-10-07T00:19:37.817Z,13.18
2023-10-07T00:24:39.250Z,13.35
2023-10-07T00:29:40.696Z,13.35
2023-10-07T00:34:42.235Z,13.58
2023-10-07T00:39:43.698Z,13.44
2023-10-07T00:44:45.229Z,13.16
2023-10-07T00:49:47.263Z,13.00
2023-10-07T00:54:49.368Z,12.89
2023-10-07T00:59:50.961Z,12.87
2023-10-07T01:04:53.650Z,12.79
2023-10-07T01:09:55.748Z,12.81
2023-10-07T01:14:57.207Z,12.83
2023-10-07T01:19:59.175Z,12.85
2023-10-07T01:25:00.631Z,12.91
2023-10-07T01:30:02.082Z,12.96
2023-10-07T01:35:03.635Z,13.10
2023-10-07T01:40:05.395Z,13.34
2023-10-07T01:45:07.616Z,13.34
2023-10-07T01:50:09.358Z,13.61
2023-10-07T01:55:10.920Z,14.28
2023-10-07T02:00:13.333Z,14.45
2023-10-07T02:05:14.907Z,14.34
2023-10-07T02:10:16.453Z,13.81
2023-10-07T02:15:17.953Z,13.22
2023-10-07T02:20:19.466Z,12.96
2023-10-07T02:25:21.031Z,12.78
2023-10-07T02:30:22.651Z,12.70
2023-10-07T02:35:24.461Z,12.89
2023-10-07T02:40:25.958Z,12.95
2023-10-07T02:45:28.051Z,12.97
2023-10-07T02:50:29.534Z,13.04
2023-10-07T02:55:31.036Z,13.08
2023-10-07T03:00:32.526Z,12.82
2023-10-07T03:05:33.981Z,12.58
2023-10-07T03:10:35.459Z,12.50
2023-10-07T03:15:39.302Z,12.56
2023-10-07T03:20:40.790Z,12.67
2023-10-07T03:25:42.832Z,12.71
2023-10-07T03:30:44.809Z,12.75
2023-10-07T03:35:46.304Z,12.76
2023-10-07T03:40:47.745Z,12.97
2023-10-07T03:45:49.370Z,13.08
2023-10-07T03:50:54.498Z,13.19
2023-10-07T03:55:56.001Z,13.19
2023-10-07T04:00:57.445Z,13.21
2023-10-07T04:05:58.901Z,13.28
2023-10-07T04:11:00.413Z,13.33
2023-10-07T04:16:01.916Z,13.40
2023-10-07T04:21:03.424Z,13.47
2023-10-07T04:26:04.932Z,13.50
2023-10-07T04:31:06.508Z,13.49
2023-10-07T04:36:09.164Z,13.50
2023-10-07T04:41:10.658Z,13.51
2023-10-07T04:46:12.142Z,13.59
2023-10-07T04:51:13.637Z,13.81
2023-10-07T04:56:15.109Z,14.02
2023-10-07T05:01:16.573Z,14.06
2023-10-07T05:06:18.038Z,14.11
2023-10-07T05:11:19.510Z,14.11
2023-10-07T05:16:21.001Z,14.20
2023-10-07T05:21:22.428Z,14.31
2023-10-07T05:26:23.884Z,14.42
2023-10-07T05:31:25.402Z,14.48
2023-10-07T05:36:27.563Z,14.54
2023-10-07T05:41:28.997Z,14.59
2023-10-07T05:46:30.444Z,14.48
2023-10-07T05:51:32.040Z,14.47
2023-10-07T05:56:33.495Z,14.52
2023-10-07T06:01:35.419Z,14.55
2023-10-07T06:06:36.995Z,14.46
2023-10-07T06:11:38.480Z,14.39
2023-10-07T06:16:40.055Z,14.52
2023-10-07T06:21:41.600Z,14.79
2023-10-07T06:26:43.023Z,14.96
2023-10-07T06:31:44.515Z,15.09
2023-10-07T06:36:46.018Z,15.15
2023-10-07T06:41:47.480Z,15.35
2023-10-07T06:46:49.015Z,15.59
2023-10-07T06:51:54.526Z,15.72
2023-10-07T06:56:56.745Z,15.91
2023-10-07T07:01:58.825Z,15.95
2023-10-07T07:07:00.487Z,16.07
2023-10-07T07:12:03.074Z,16.08
2023-10-07T07:17:05.398Z,16.14
2023-10-07T07:22:06.846Z,16.25
2023-10-07T07:27:08.335Z,16.38
2023-10-07T07:32:09.820Z,16.56
2023-10-07T07:37:11.266Z,16.67
2023-10-07T07:42:12.716Z,17.16
2023-10-07T07:47:14.241Z,17.65
2023-10-07T07:52:15.725Z,18.01
2023-10-07T07:57:17.180Z,18.58
2023-10-07T08:02:18.797Z,18.89
2023-10-07T08:07:20.530Z,19.08
2023-10-07T08:12:23.349Z,19.01
2023-10-07T08:17:25.691Z,19.15
2023-10-07T08:22:27.277Z,19.19
2023-10-07T08:27:28.739Z,19.19
2023-10-07T08:32:30.253Z,19.84
2023-10-07T08:37:31.754Z,20.14
2023-10-07T08:42:33.230Z,19.97
2023-10-07T08:47:34.884Z,19.84
2023-10-07T08:52:36.657Z,20.00
2023-10-07T08:57:38.174Z,20.43
2023-10-07T09:02:39.795Z,21.42
2023-10-07T09:07:41.315Z,21.61
2023-10-07T09:12:43.172Z,21.39
2023-10-07T09:17:44.646Z,21.50
2023-10-07T09:22:46.206Z,21.74
2023-10-07T09:27:48.183Z,21.46
2023-10-07T09:32:49.864Z,22.10
2023-10-07T09:37:51.962Z,22.85
2023-10-07T09:42:53.432Z,23.92
2023-10-07T09:47:55.880Z,23.87
2023-10-07T09:53:12.573Z,23.95
2023-10-07T09:58:24.000Z,23.75
2023-10-07T10:03:44.392Z,25.06
2023-10-07T10:08:50.692Z,25.29
2023-10-07T10:13:52.591Z,24.97
2023-10-07T10:18:57.686Z,24.65
2023-10-07T10:23:59.176Z,24.88
2023-10-07T10:29:01.711Z,24.81
2023-10-07T10:34:03.742Z,24.73
2023-10-07T10:39:25.484Z,24.73
2023-10-07T10:44:38.543Z,24.83
2023-10-07T10:49:39.982Z,25.98
2023-10-07T10:54:41.499Z,26.41
2023-10-07T10:59:43.734Z,26.62
2023-10-07T11:04:49.783Z,26.61
2023-10-07T11:09:52.165Z,26.98
2023-10-07T11:15:01.525Z,26.98
2023-10-07T11:20:03.137Z,27.14
2023-10-07T11:25:04.834Z,27.21
2023-10-07T11:30:06.597Z,27.21
2023-10-07T11:35:20.973Z,26.19
2023-10-07T11:40:22.486Z,26.80
2023-10-07T11:45:24.063Z,27.26
2023-10-07T11:50:25.737Z,28.11
2023-10-07T11:55:27.265Z,28.00
2023-10-07T12:00:29.220Z,27.40
2023-10-07T12:05:30.723Z,26.99
2023-10-07T12:10:33.350Z,27.58
2023-10-07T12:15:34.840Z,27.28
2023-10-07T12:20:37.214Z,27.59
2023-10-07T12:25:38.686Z,27.53
2023-10-07T12:30:40.223Z,27.62
2023-10-07T12:35:41.683Z,27.40
2023-10-07T12:40:43.126Z,27.83
2023-10-07T12:45:44.692Z,27.60
2023-10-07T12:50:46.115Z,27.50
2023-10-07T12:55:47.731Z,27.92
2023-10-07T13:00:49.297Z,27.08
2023-10-07T13:05:50.901Z,26.43
2023-10-07T13:10:52.447Z,27.23
2023-10-07T13:15:53.912Z,27.16
2023-10-07T13:20:55.410Z,27.05
2023-10-07T13:25:56.898Z,27.40
2023-10-07T13:30:58.459Z,27.17
2023-10-07T13:36:02.469Z,27.42
2023-10-07T13:41:06.948Z,27.41
2023-10-07T13:46:12.155Z,27.13
2023-10-07T13:51:13.698Z,27.33
2023-10-07T13:56:15.244Z,26.86
2023-10-07T14:01:16.878Z,27.37
2023-10-07T14:06:18.360Z,27.88
2023-10-07T14:11:19.929Z,27.57
2023-10-07T14:16:21.494Z,27.27
2023-10-07T14:21:23.028Z,27.11
2023-10-07T14:26:24.619Z,26.13
2023-10-07T14:31:26.371Z,25.84
2023-10-07T14:36:27.891Z,26.83
2023-10-07T14:41:29.445Z,26.50
2023-10-07T14:46:31.592Z,26.28
2023-10-07T14:51:33.063Z,26.26
2023-10-07T14:56:34.520Z,26.37
2023-10-07T15:01:36.127Z,26.39
2023-10-07T15:06:37.658Z,26.75
2023-10-07T15:11:39.101Z,26.56
2023-10-07T15:16:40.639Z,26.32
2023-10-07T15:21:42.435Z,26.04
2023-10-07T15:26:43.894Z,25.95
2023-10-07T15:31:45.452Z,25.85
2023-10-07T15:36:46.892Z,25.98
2023-10-07T15:41:48.473Z,26.15
2023-10-07T15:46:49.933Z,26.17
2023-10-07T15:51:51.355Z,25.51
2023-10-07T15:56:52.782Z,25.70
2023-10-07T16:01:54.364Z,25.23
2023-10-07T16:06:55.974Z,25.20
2023-10-07T16:11:57.380Z,25.12
2023-10-07T16:16:58.984Z,25.03
2023-10-07T16:22:00.530Z,24.84
2023-10-07T16:27:02.135Z,24.71
2023-10-07T16:32:03.857Z,24.43
2023-10-07T16:37:05.378Z,24.27
2023-10-07T16:42:06.853Z,24.10
2023-10-07T16:47:08.472Z,24.01
2023-10-07T16:52:09.967Z,23.84
2023-10-07T16:57:11.566Z,23.70
2023-10-07T17:02:13.877Z,23.57
2023-10-07T17:07:15.454Z,23.44
2023-10-07T17:12:16.903Z,23.24
2023-10-07T17:17:18.473Z,23.17
2023-10-07T17:22:19.993Z,23.11
2023-10-07T17:27:21.421Z,23.12
2023-10-07T17:32:22.930Z,23.04
2023-10-07T17:37:24.419Z,23.00
2023-10-07T17:42:25.919Z,22.89
2023-10-07T17:47:27.507Z,22.94
2023-10-07T17:52:28.974Z,22.80
2023-10-07T17:57:31.487Z,22.67
2023-10-07T18:02:33.544Z,22.78
2023-10-07T18:07:35.224Z,22.52
2023-10-07T18:12:36.687Z,22.20
2023-10-07T18:17:38.291Z,21.99
2023-10-07T18:22:43.434Z,21.69
2023-10-07T18:27:45.136Z,21.30
2023-10-07T18:32:46.904Z,21.38
2023-10-07T18:37:48.418Z,21.29
2023-10-07T18:42:49.868Z,21.46
2023-10-07T18:47:51.512Z,21.25
2023-10-07T18:52:53.033Z,20.89
2023-10-07T18:57:54.507Z,20.52
2023-10-07T19:02:56.015Z,20.28
2023-10-07T19:07:57.669Z,20.30
2023-10-07T19:12:59.181Z,20.24
2023-10-07T19:18:00.656Z,20.15
2023-10-07T19:23:02.299Z,20.37
2023-10-07T19:28:03.919Z,20.61
2023-10-07T19:33:05.506Z,20.92
2023-10-07T19:38:07.362Z,20.91
2023-10-07T19:43:08.829Z,20.81
2023-10-07T19:48:10.368Z,20.71
2023-10-07T19:53:11.960Z,20.64
2023-10-07T19:58:13.503Z,20.79
2023-10-07T20:03:15.090Z,20.64
2023-10-07T20:08:16.644Z,20.34
2023-10-07T20:13:18.105Z,20.10
2023-10-07T20:18:19.623Z,19.98
2023-10-07T20:23:21.252Z,19.74
2023-10-07T20:28:22.804Z,19.77
2023-10-07T20:33:24.335Z,19.85
2023-10-07T20:38:25.859Z,19.84
2023-10-07T20:43:27.300Z,20.28
2023-10-07T20:48:29.398Z,20.48
2023-10-07T20:53:34.494Z,20.40
2023-10-07T20:58:36.079Z,20.35
2023-10-07T21:03:37.820Z,20.05
2023-10-07T21:08:39.478Z,20.08
2023-10-07T21:13:41.372Z,20.08
2023-10-07T21:18:42.832Z,19.87
2023-10-07T21:23:44.587Z,20.22
2023-10-07T21:28:46.114Z,20.66
2023-10-07T21:33:47.580Z,20.95
2023-10-07T21:38:49.040Z,21.18
2023-10-07T21:43:50.481Z,21.30
2023-10-07T21:48:52.006Z,21.33
2023-10-07T21:53:53.461Z,21.34
2023-10-07T21:58:54.890Z,21.21
2023-10-07T22:03:56.384Z,21.05
2023-10-07T22:08:57.940Z,20.97
2023-10-07T22:13:59.414Z,21.18
2023-10-07T22:19:00.912Z,21.10
2023-10-07T22:24:02.426Z,21.13
2023-10-07T22:29:04.613Z,21.14
2023-10-07T22:34:06.097Z,21.22
2023-10-07T22:39:07.529Z,21.54
2023-10-07T22:44:09.048Z,21.68
2023-10-07T22:49:10.758Z,21.98
2023-10-07T22:54:12.442Z,21.99
2023-10-07T22:59:14.213Z,22.11
2023-10-07T23:04:16.675Z,22.01
2023-10-07T23:09:18.371Z,21.98
2023-10-07T23:14:21.055Z,22.04
2023-10-07T23:19:24.043Z,21.99
2023-10-07T23:24:25.532Z,22.07
2023-10-07T23:29:27.116Z,22.00
2023-10-07T23:34:28.702Z,21.82
2023-10-07T23:39:30.573Z,21.64
2023-10-07T23:44:32.893Z,21.46
2023-10-07T23:49:34.353Z,21.64
2023-10-07T23:54:35.884Z,21.82
2023-10-07T23:59:37.448Z,21.88
